Chino, California
Current Conditions -  °F | °C
As of 5:53 AM on Sunday 25 Jan 2015 (Local Time) from KCNO Reporting Station
Clear Clear  
Wind Chill: 63°   Ceiling: Unl
Heat Index: 63°   Visibility: 10mi
Dew Point: 23°   Wind: 14mph
Humidity: 22%   Direction: 100°E
Pressure: 30.04"   Gusts: NA
Location:  34.01°N, 117.68°W
Report Text: KCNO 251353Z AUTO 10012KT 10SM CLR 17/M05 A3004 RMK AO2 SLP167 T01721050 $
Loading
Personal Weather Stations






























Interactive Weather Map New forecast layout! Learn more

10-Day Weather Forecast

Advertisements
Track Severe Weather on mobile